createdAt,value
2023-04-27T00:00:42.354Z,8.75
2023-04-27T00:02:51.554Z,10.95
2023-04-27T00:04:59.216Z,12.80
2023-04-27T00:07:06.817Z,8.70
2023-04-27T00:09:14.702Z,9.23
2023-04-27T00:11:22.257Z,6.43
2023-04-27T00:13:29.795Z,8.35
2023-04-27T00:15:36.922Z,9.45
2023-04-27T00:17:44.688Z,8.13
2023-04-27T00:19:54.462Z,8.20
2023-04-27T00:22:01.834Z,7.05
2023-04-27T00:24:10.088Z,10.15
2023-04-27T00:26:17.340Z,7.43
2023-04-27T00:28:28.007Z,8.38
2023-04-27T00:30:38.770Z,9.23
2023-04-27T00:32:46.003Z,8.27
2023-04-27T00:34:57.950Z,7.38
2023-04-27T00:37:05.663Z,8.27
2023-04-27T00:39:13.376Z,8.45
2023-04-27T00:41:21.324Z,10.15
2023-04-27T00:43:28.358Z,8.55
2023-04-27T00:45:35.768Z,8.40
2023-04-27T00:47:42.929Z,7.57
2023-04-27T00:49:50.366Z,7.57
2023-04-27T00:52:00.193Z,11.55
2023-04-27T00:54:07.684Z,9.32
2023-04-27T00:56:16.121Z,8.38
2023-04-27T00:58:24.058Z,9.15
2023-04-27T01:00:31.497Z,9.55
2023-04-27T01:02:41.123Z,7.93
2023-04-27T01:04:49.091Z,10.35
2023-04-27T01:06:58.157Z,9.80
2023-04-27T01:09:06.812Z,7.38
2023-04-27T01:11:14.416Z,8.57
2023-04-27T01:13:21.547Z,9.80
2023-04-27T01:15:29.143Z,9.13
2023-04-27T01:17:36.836Z,8.55
2023-04-27T01:19:46.012Z,8.75
2023-04-27T01:21:53.191Z,8.45
2023-04-27T01:24:02.162Z,7.03
2023-04-27T01:26:09.450Z,8.85
2023-04-27T01:28:16.966Z,7.82
2023-04-27T01:30:24.996Z,11.45
2023-04-27T01:32:32.608Z,8.75
2023-04-27T01:34:39.705Z,9.35
2023-04-27T01:36:47.402Z,9.38
2023-04-27T01:38:54.532Z,11.45
2023-04-27T01:41:04.657Z,9.63
2023-04-27T01:43:11.726Z,7.60
2023-04-27T01:45:19.257Z,8.57
2023-04-27T01:47:26.478Z,8.40
2023-04-27T01:49:34.079Z,8.40
2023-04-27T01:51:41.264Z,10.65
2023-04-27T01:53:48.906Z,9.88
2023-04-27T01:55:56.448Z,9.68
2023-04-27T01:58:06.453Z,7.75
2023-04-27T02:00:14.752Z,8.38
2023-04-27T02:02:28.173Z,9.05
2023-04-27T02:04:37.516Z,9.65
2023-04-27T02:06:44.957Z,8.77
2023-04-27T02:08:53.109Z,16.77
2023-04-27T02:11:00.440Z,10.75
2023-04-27T02:13:09.260Z,14.93
2023-04-27T02:15:17.160Z,13.63
2023-04-27T02:17:24.238Z,9.98
2023-04-27T02:19:31.415Z,17.13
2023-04-27T02:21:39.317Z,16.08
2023-04-27T02:23:46.906Z,14.43
2023-04-27T02:25:54.304Z,12.80
2023-04-27T02:28:01.987Z,12.60
2023-04-27T02:30:13.174Z,13.93
2023-04-27T02:32:20.909Z,13.38
2023-04-27T02:34:28.245Z,15.05
2023-04-27T02:36:36.033Z,13.15
2023-04-27T02:38:43.428Z,15.68
2023-04-27T02:40:56.035Z,19.90
2023-04-27T02:43:03.264Z,12.70
2023-04-27T02:45:14.444Z,14.30
2023-04-27T02:47:22.288Z,13.45
2023-04-27T02:49:29.881Z,17.33
2023-04-27T02:51:36.957Z,17.42
2023-04-27T02:53:44.443Z,13.77
2023-04-27T02:55:52.241Z,13.15
2023-04-27T02:57:59.781Z,11.68
2023-04-27T03:00:07.936Z,11.50
2023-04-27T03:02:17.124Z,9.80
2023-04-27T03:04:24.613Z,17.00
2023-04-27T03:06:32.296Z,14.27
2023-04-27T03:08:39.422Z,14.80
2023-04-27T03:10:47.014Z,10.73
2023-04-27T03:12:54.198Z,10.35
2023-04-27T03:15:02.256Z,10.35
2023-04-27T03:17:09.685Z,9.65
2023-04-27T03:19:18.925Z,11.45
2023-04-27T03:21:26.316Z,9.40
2023-04-27T03:23:33.796Z,9.75
2023-04-27T03:25:40.923Z,8.77
2023-04-27T03:27:48.318Z,9.10
2023-04-27T03:29:56.413Z,9.55
2023-04-27T03:32:05.130Z,7.60
2023-04-27T03:34:12.414Z,7.72
2023-04-27T03:36:22.003Z,7.60
2023-04-27T03:38:29.954Z,10.32
2023-04-27T03:40:37.697Z,9.40
2023-04-27T03:42:44.983Z,8.98
2023-04-27T03:44:52.212Z,10.40
2023-04-27T03:46:59.956Z,8.55
2023-04-27T03:49:07.397Z,9.63
2023-04-27T03:51:16.116Z,9.13
2023-04-27T03:53:26.945Z,7.72
2023-04-27T03:55:34.624Z,8.98
2023-04-27T03:57:41.996Z,10.02
2023-04-27T03:59:49.408Z,11.38
2023-04-27T04:01:57.457Z,9.73
2023-04-27T04:04:06.784Z,10.43
2023-04-27T04:06:14.116Z,10.85
2023-04-27T04:08:21.500Z,11.43
2023-04-27T04:10:30.578Z,10.70
2023-04-27T04:12:38.483Z,10.45
2023-04-27T04:14:45.835Z,14.20
2023-04-27T04:16:53.529Z,13.23
2023-04-27T04:19:01.400Z,11.80
2023-04-27T04:21:09.251Z,10.65
2023-04-27T04:23:17.103Z,11.27
2023-04-27T04:25:27.248Z,11.88
2023-04-27T04:27:36.177Z,8.48
2023-04-27T04:29:43.921Z,9.73
2023-04-27T04:31:51.147Z,12.30
2023-04-27T04:33:58.538Z,11.35
2023-04-27T04:36:08.135Z,10.23
2023-04-27T04:38:15.825Z,10.35
2023-04-27T04:40:23.108Z,11.73
2023-04-27T04:42:30.538Z,11.25
2023-04-27T04:44:39.770Z,11.68
2023-04-27T04:46:47.487Z,10.55
2023-04-27T04:48:55.164Z,10.82
2023-04-27T04:51:02.749Z,10.57
2023-04-27T04:53:10.089Z,12.20
2023-04-27T04:55:18.298Z,10.35
2023-04-27T04:57:25.623Z,11.88
2023-04-27T04:59:36.119Z,10.60
2023-04-27T05:01:44.935Z,11.70
2023-04-27T05:03:52.710Z,9.98
2023-04-27T05:06:00.118Z,10.68
2023-04-27T05:08:07.739Z,11.00
2023-04-27T05:10:15.114Z,8.88
2023-04-27T05:12:22.910Z,8.73
2023-04-27T05:14:30.042Z,8.95
2023-04-27T05:16:37.417Z,9.68
2023-04-27T05:18:46.551Z,10.07
2023-04-27T05:20:53.998Z,8.98
2023-04-27T05:23:01.065Z,10.32
2023-04-27T05:25:09.644Z,8.70
2023-04-27T05:27:18.196Z,9.38
2023-04-27T05:29:26.045Z,11.05
2023-04-27T05:31:33.248Z,11.30
2023-04-27T05:33:40.458Z,12.93
2023-04-27T05:35:49.795Z,9.18
2023-04-27T05:37:57.372Z,9.93
2023-04-27T05:40:05.238Z,11.07
2023-04-27T05:42:12.924Z,12.55
2023-04-27T05:44:20.481Z,11.77
2023-04-27T05:46:27.638Z,8.93
2023-04-27T05:48:34.939Z,10.35
2023-04-27T05:50:42.060Z,10.35
2023-04-27T05:52:51.197Z,9.45
2023-04-27T05:54:58.484Z,10.35
2023-04-27T05:57:06.113Z,12.95
2023-04-27T05:59:13.604Z,12.68
2023-04-27T06:01:21.297Z,9.38
2023-04-27T06:03:28.879Z,11.43
2023-04-27T06:05:37.246Z,10.05
2023-04-27T06:07:44.797Z,9.88
2023-04-27T06:09:53.970Z,11.50
2023-04-27T06:12:01.251Z,12.27
2023-04-27T06:14:08.944Z,10.85
2023-04-27T06:16:16.091Z,12.15
2023-04-27T06:18:23.876Z,10.70
2023-04-27T06:20:31.366Z,11.82
2023-04-27T06:22:39.723Z,13.20
2023-04-27T06:24:46.853Z,11.35
2023-04-27T06:26:56.591Z,11.25
2023-04-27T06:29:04.743Z,14.45
2023-04-27T06:31:12.274Z,12.95
2023-04-27T06:33:19.618Z,15.38
2023-04-27T06:35:27.120Z,13.80
2023-04-27T06:37:34.295Z,14.32
2023-04-27T06:39:42.212Z,13.93
2023-04-27T06:41:49.628Z,14.93
2023-04-27T06:44:00.646Z,15.23
2023-04-27T06:46:08.368Z,17.02
2023-04-27T06:48:15.770Z,14.48
2023-04-27T06:50:23.226Z,16.25
2023-04-27T06:52:30.500Z,15.23
2023-04-27T06:54:37.950Z,16.58
2023-04-27T06:56:45.682Z,15.57
2023-04-27T06:58:53.430Z,15.85
2023-04-27T07:01:02.673Z,14.77
2023-04-27T07:03:10.223Z,17.15
2023-04-27T07:05:17.535Z,19.30
2023-04-27T07:07:25.072Z,18.30
2023-04-27T07:09:32.898Z,16.17
2023-04-27T07:11:40.665Z,15.70
2023-04-27T07:13:48.308Z,14.93
2023-04-27T07:16:01.620Z,14.63
2023-04-27T07:18:09.050Z,14.63
2023-04-27T07:20:18.351Z,16.58
2023-04-27T07:22:26.095Z,15.07
2023-04-27T07:24:33.895Z,16.00
2023-04-27T07:26:40.970Z,14.77
2023-04-27T07:28:48.306Z,14.25
2023-04-27T07:30:55.692Z,14.45
2023-04-27T07:33:04.623Z,14.23
2023-04-27T07:35:12.614Z,16.02
2023-04-27T07:37:20.736Z,14.75
2023-04-27T07:39:28.256Z,16.52
2023-04-27T07:41:36.564Z,14.23
2023-04-27T07:43:44.362Z,14.20
2023-04-27T07:45:51.687Z,14.93
2023-04-27T07:47:59.216Z,15.18
2023-04-27T07:50:08.742Z,16.40
2023-04-27T07:52:16.262Z,16.27
2023-04-27T07:54:23.445Z,14.93
2023-04-27T07:56:30.931Z,13.90
2023-04-27T07:58:38.985Z,14.70
2023-04-27T08:00:46.521Z,16.77
2023-04-27T08:02:54.120Z,15.77
2023-04-27T08:05:03.755Z,15.90
2023-04-27T08:07:13.154Z,16.80
2023-04-27T08:09:20.984Z,15.98
2023-04-27T08:11:28.116Z,14.52
2023-04-27T08:13:39.014Z,16.73
2023-04-27T08:15:46.521Z,15.07
2023-04-27T08:17:54.155Z,17.33
2023-04-27T08:20:01.344Z,15.13
2023-04-27T08:22:08.843Z,15.75
2023-04-27T08:24:17.652Z,14.60
2023-04-27T08:26:26.284Z,15.05
2023-04-27T08:28:33.655Z,15.70
2023-04-27T08:30:40.998Z,17.50
2023-04-27T08:32:48.857Z,16.77
2023-04-27T08:34:56.430Z,17.17
2023-04-27T08:37:05.348Z,17.35
2023-04-27T08:39:13.046Z,16.55
2023-04-27T08:41:25.362Z,15.57
2023-04-27T08:43:38.165Z,16.98
2023-04-27T08:45:54.026Z,15.13
2023-04-27T08:48:02.512Z,15.43
2023-04-27T08:50:10.816Z,16.33
2023-04-27T08:52:18.817Z,15.30
2023-04-27T08:54:26.137Z,16.23
2023-04-27T08:56:35.331Z,17.90
2023-04-27T08:58:42.871Z,16.17
2023-04-27T09:00:52.023Z,15.88
2023-04-27T09:02:59.996Z,15.65
2023-04-27T09:05:08.007Z,17.17
2023-04-27T09:07:16.823Z,15.43
2023-04-27T09:09:27.995Z,15.50
2023-04-27T09:11:38.192Z,16.73
2023-04-27T09:13:47.070Z,16.75
2023-04-27T09:15:55.238Z,20.45
2023-04-27T09:18:02.685Z,18.05
2023-04-27T09:20:13.877Z,17.10
2023-04-27T09:22:21.225Z,21.00
2023-04-27T09:24:28.303Z,19.85
2023-04-27T09:26:37.587Z,19.55
2023-04-27T09:28:51.113Z,18.67
2023-04-27T09:31:00.167Z,19.27
2023-04-27T09:33:07.431Z,21.33
2023-04-27T09:35:25.662Z,19.88
2023-04-27T09:37:33.534Z,23.15
2023-04-27T09:39:41.258Z,16.77
2023-04-27T09:41:51.511Z,19.13
2023-04-27T09:44:00.436Z,18.35
2023-04-27T09:46:08.942Z,18.73
2023-04-27T09:48:16.738Z,17.35
2023-04-27T09:50:24.687Z,18.30
2023-04-27T09:52:32.126Z,16.05
2023-04-27T09:54:40.628Z,17.95
2023-04-27T09:56:59.288Z,15.73
2023-04-27T09:59:32.225Z,18.35
2023-04-27T10:01:46.692Z,18.00
2023-04-27T10:04:06.121Z,22.73
2023-04-27T10:06:46.404Z,21.63
2023-04-27T10:08:54.972Z,15.80
2023-04-27T10:11:02.051Z,20.88
2023-04-27T10:13:11.071Z,16.88
2023-04-27T10:15:19.481Z,19.38
2023-04-27T10:17:34.285Z,15.45
2023-04-27T10:19:41.743Z,16.52
2023-04-27T10:22:01.556Z,16.17
2023-04-27T10:24:12.608Z,16.48
2023-04-27T10:26:26.928Z,17.92
2023-04-27T10:28:42.874Z,19.20
2023-04-27T10:30:52.158Z,17.73
2023-04-27T10:33:00.525Z,19.77
2023-04-27T10:35:09.224Z,20.48
2023-04-27T10:37:16.461Z,18.25
2023-04-27T10:39:39.647Z,17.27
2023-04-27T10:41:55.821Z,16.73
2023-04-27T10:44:17.938Z,15.57
2023-04-27T10:46:25.157Z,15.57
2023-04-27T10:48:34.611Z,16.40
2023-04-27T10:50:47.950Z,14.90
2023-04-27T10:52:55.523Z,16.42
2023-04-27T10:55:16.895Z,17.33
2023-04-27T10:57:24.693Z,16.85
2023-04-27T10:59:34.077Z,19.73
2023-04-27T11:01:43.384Z,15.43
2023-04-27T11:03:59.803Z,16.23
2023-04-27T11:06:08.770Z,18.05
2023-04-27T11:08:17.742Z,18.92
2023-04-27T11:10:25.597Z,16.52
2023-04-27T11:12:35.178Z,20.40
2023-04-27T11:14:44.407Z,15.60
2023-04-27T11:16:52.310Z,23.60
2023-04-27T11:19:00.000Z,18.20
2023-04-27T11:21:15.020Z,19.27
2023-04-27T11:23:29.979Z,20.98
2023-04-27T11:25:37.682Z,20.13
2023-04-27T11:27:46.545Z,19.42
2023-04-27T11:29:55.572Z,22.52
2023-04-27T11:32:03.817Z,20.27
2023-04-27T11:34:11.375Z,21.38
2023-04-27T11:36:22.363Z,20.38
2023-04-27T11:38:29.660Z,20.98
2023-04-27T11:40:40.746Z,21.83
2023-04-27T11:42:49.024Z,27.83
2023-04-27T11:45:02.328Z,22.55
2023-04-27T11:47:11.576Z,25.05
2023-04-27T11:49:19.100Z,24.15
2023-04-27T11:51:29.968Z,26.30
2023-04-27T11:53:38.682Z,26.17
2023-04-27T11:55:46.786Z,26.10
2023-04-27T11:57:59.200Z,23.88
2023-04-27T12:00:11.911Z,25.33
2023-04-27T12:02:23.039Z,24.33
2023-04-27T12:04:33.354Z,24.35
2023-04-27T12:06:41.173Z,20.80
2023-04-27T12:08:48.258Z,26.80
2023-04-27T12:10:56.050Z,25.98
2023-04-27T12:13:03.182Z,25.02
2023-04-27T12:15:13.657Z,29.85
2023-04-27T12:17:21.181Z,27.02
2023-04-27T12:19:29.027Z,27.85
2023-04-27T12:21:36.629Z,25.80
2023-04-27T12:23:44.421Z,26.25
2023-04-27T12:25:51.599Z,30.23
2023-04-27T12:27:59.085Z,29.30
2023-04-27T12:30:06.472Z,33.72
2023-04-27T12:32:15.652Z,27.95
2023-04-27T12:34:22.783Z,24.77
2023-04-27T12:36:30.516Z,29.95
2023-04-27T12:38:38.253Z,25.30
2023-04-27T12:40:45.657Z,31.60
2023-04-27T12:42:52.889Z,28.50
2023-04-27T12:45:00.324Z,27.02
2023-04-27T12:47:07.457Z,27.52
2023-04-27T12:49:16.999Z,27.63
2023-04-27T12:51:24.327Z,31.80
2023-04-27T12:53:32.482Z,34.45
2023-04-27T12:55:40.077Z,32.50
2023-04-27T12:57:47.512Z,31.60
2023-04-27T12:59:55.359Z,29.60
2023-04-27T13:02:04.180Z,30.15
2023-04-27T13:04:12.000Z,29.98
2023-04-27T13:06:21.260Z,31.73
2023-04-27T13:08:28.639Z,32.30
2023-04-27T13:10:36.181Z,33.95
2023-04-27T13:12:43.358Z,28.17
2023-04-27T13:14:50.808Z,27.33
2023-04-27T13:16:58.033Z,25.52
2023-04-27T13:19:05.592Z,22.73
2023-04-27T13:21:12.928Z,25.85
2023-04-27T13:23:22.444Z,28.00
2023-04-27T13:25:30.145Z,25.80
2023-04-27T13:27:37.349Z,22.67
2023-04-27T13:29:44.705Z,24.15
2023-04-27T13:31:52.640Z,25.65
2023-04-27T13:33:59.785Z,24.45
2023-04-27T13:36:07.337Z,24.40
2023-04-27T13:38:14.402Z,23.92
2023-04-27T13:40:23.990Z,24.52
2023-04-27T13:42:31.632Z,22.33
2023-04-27T13:44:38.970Z,21.80
2023-04-27T13:46:46.195Z,23.50
2023-04-27T13:48:53.894Z,20.38
2023-04-27T13:51:01.488Z,16.67
2023-04-27T13:53:09.802Z,19.77
2023-04-27T13:55:17.133Z,18.98
2023-04-27T13:57:26.267Z,20.80
2023-04-27T13:59:33.388Z,17.38
2023-04-27T14:01:41.194Z,18.27
2023-04-27T14:03:48.381Z,18.83
2023-04-27T14:05:56.124Z,20.75
2023-04-27T14:08:03.344Z,21.33
2023-04-27T14:10:11.601Z,16.50
2023-04-27T14:12:18.735Z,16.77
2023-04-27T14:14:28.014Z,16.85
2023-04-27T14:16:35.184Z,16.90
2023-04-27T14:18:42.842Z,16.48
2023-04-27T14:20:50.122Z,15.55
2023-04-27T14:22:58.580Z,16.20
2023-04-27T14:25:05.869Z,16.10
2023-04-27T14:27:13.302Z,15.93
2023-04-27T14:29:20.594Z,19.20
2023-04-27T14:31:30.466Z,19.02
2023-04-27T14:33:37.518Z,21.88
2023-04-27T14:35:45.004Z,18.17
2023-04-27T14:37:52.391Z,20.83
2023-04-27T14:40:00.545Z,17.95
2023-04-27T14:42:08.390Z,19.40
2023-04-27T14:44:15.419Z,19.38
2023-04-27T14:46:22.911Z,18.58
2023-04-27T14:48:31.832Z,19.15
2023-04-27T14:50:39.524Z,18.23
2023-04-27T14:52:47.114Z,18.73
2023-04-27T14:54:54.209Z,16.77
2023-04-27T14:57:02.144Z,22.23
2023-04-27T14:59:09.230Z,18.70
2023-04-27T15:01:16.647Z,18.25
2023-04-27T15:03:23.953Z,19.30
2023-04-27T15:05:33.278Z,18.08
2023-04-27T15:07:40.613Z,19.70
2023-04-27T15:09:48.101Z,19.98
2023-04-27T15:11:55.179Z,19.40
2023-04-27T15:14:02.568Z,19.48
2023-04-27T15:16:10.160Z,22.02
2023-04-27T15:18:17.884Z,21.05
2023-04-27T15:20:25.187Z,20.55
2023-04-27T15:22:34.465Z,19.42
2023-04-27T15:24:41.852Z,17.85
2023-04-27T15:26:50.937Z,18.95
2023-04-27T15:28:59.241Z,20.42
2023-04-27T15:31:06.800Z,18.77
2023-04-27T15:33:14.110Z,21.77
2023-04-27T15:35:21.502Z,22.23
2023-04-27T15:37:29.039Z,20.48
2023-04-27T15:39:38.061Z,19.60
2023-04-27T15:41:45.820Z,20.15
2023-04-27T15:43:53.806Z,19.42
2023-04-27T15:46:01.350Z,19.73
2023-04-27T15:48:08.906Z,19.25
2023-04-27T15:50:17.922Z,22.98
2023-04-27T15:52:25.244Z,22.15
2023-04-27T15:54:32.838Z,23.33
2023-04-27T15:56:41.810Z,19.80
2023-04-27T15:58:49.350Z,19.48
2023-04-27T16:00:56.559Z,20.48
2023-04-27T16:03:04.345Z,20.83
2023-04-27T16:05:13.044Z,21.48
2023-04-27T16:07:20.438Z,20.85
2023-04-27T16:09:27.873Z,24.33
2023-04-27T16:11:34.999Z,20.67
2023-04-27T16:13:44.076Z,20.20
2023-04-27T16:15:51.390Z,20.73
2023-04-27T16:17:58.945Z,23.38
2023-04-27T16:20:08.594Z,21.20
2023-04-27T16:22:15.873Z,24.33
2023-04-27T16:24:23.313Z,19.75
2023-04-27T16:26:31.026Z,20.02
2023-04-27T16:30:47.364Z,18.63
2023-04-27T16:32:55.148Z,19.08
2023-04-27T16:35:03.017Z,22.70
2023-04-27T16:37:10.803Z,20.80
2023-04-27T16:39:20.246Z,19.67
2023-04-27T16:41:27.470Z,21.25
2023-04-27T16:43:34.959Z,18.65
2023-04-27T16:45:42.913Z,22.35
2023-04-27T16:47:52.205Z,19.85
2023-04-27T16:49:59.272Z,21.45
2023-04-27T16:52:06.562Z,20.48
2023-04-27T16:54:13.819Z,21.60
2023-04-27T16:56:30.037Z,19.23
2023-04-27T16:58:37.467Z,23.90
2023-04-27T17:00:45.056Z,19.77
2023-04-27T17:02:54.072Z,22.42
2023-04-27T17:05:02.327Z,18.40
2023-04-27T17:07:10.139Z,17.67
2023-04-27T17:09:17.782Z,19.08
2023-04-27T17:11:25.213Z,20.90
2023-04-27T17:13:32.856Z,21.33
2023-04-27T17:15:40.190Z,21.98
2023-04-27T17:17:47.835Z,23.25
2023-04-27T17:19:56.705Z,20.30
2023-04-27T17:22:04.517Z,18.38
2023-04-27T17:24:12.506Z,21.23
2023-04-27T17:26:21.016Z,18.48
2023-04-27T17:28:28.252Z,22.67
2023-04-27T17:30:35.842Z,23.00
2023-04-27T17:32:43.051Z,28.42
2023-04-27T17:34:50.822Z,25.63
2023-04-27T17:36:59.844Z,21.98
2023-04-27T17:39:07.334Z,22.98
2023-04-27T17:41:14.530Z,20.10
2023-04-27T17:43:22.013Z,24.98
2023-04-27T17:45:29.964Z,22.40
2023-04-27T17:47:38.011Z,21.00
2023-04-27T17:49:45.363Z,23.40
2023-04-27T17:51:53.090Z,20.52
2023-04-27T17:54:02.071Z,21.80
2023-04-27T17:56:09.756Z,23.08
2023-04-27T17:58:18.116Z,22.80
2023-04-27T18:00:26.330Z,21.15
2023-04-27T18:02:33.492Z,22.83
2023-04-27T18:04:41.004Z,25.40
2023-04-27T18:06:48.378Z,21.60
2023-04-27T18:08:55.868Z,23.52
2023-04-27T18:11:04.742Z,21.98
2023-04-27T18:13:11.920Z,25.33
2023-04-27T18:15:18.896Z,21.42
2023-04-27T18:17:26.216Z,20.10
2023-04-27T18:19:33.941Z,20.73
2023-04-27T18:21:40.961Z,23.25
2023-04-27T18:23:48.500Z,25.00
2023-04-27T18:25:56.648Z,23.83
2023-04-27T18:28:05.957Z,21.55
2023-04-27T18:30:13.624Z,23.00
2023-04-27T18:32:20.817Z,23.13
2023-04-27T18:34:28.249Z,22.08
2023-04-27T18:36:35.388Z,24.40
2023-04-27T18:38:42.604Z,23.15
2023-04-27T18:40:49.525Z,23.80
2023-04-27T18:42:57.016Z,24.98
2023-04-27T18:45:05.706Z,23.23
2023-04-27T18:47:14.809Z,21.90
2023-04-27T18:49:22.758Z,23.83
2023-04-27T18:51:30.042Z,21.45
2023-04-27T18:53:37.075Z,22.45
2023-04-27T18:55:44.458Z,23.85
2023-04-27T18:57:51.537Z,21.88
2023-04-27T18:59:58.463Z,19.77
2023-04-27T19:02:07.355Z,23.00
2023-04-27T19:04:15.488Z,22.25
2023-04-27T19:06:22.881Z,22.63
2023-04-27T19:08:29.967Z,24.80
2023-04-27T19:10:36.858Z,22.63
2023-04-27T19:12:44.110Z,23.90
2023-04-27T19:14:50.933Z,23.13
2023-04-27T19:16:57.885Z,25.33
2023-04-27T19:19:06.578Z,24.77
2023-04-27T19:21:13.607Z,25.45
2023-04-27T19:23:21.517Z,23.83
2023-04-27T19:25:29.355Z,22.15
2023-04-27T19:27:37.013Z,25.80
2023-04-27T19:29:55.494Z,25.48
2023-04-27T19:32:03.131Z,24.98
2023-04-27T19:34:12.109Z,23.45
2023-04-27T19:36:19.553Z,22.20
2023-04-27T19:38:26.740Z,23.80
2023-04-27T19:40:34.421Z,21.30
2023-04-27T19:42:41.704Z,23.17
2023-04-27T19:44:49.197Z,27.30
2023-04-27T19:46:56.528Z,30.15
2023-04-27T19:49:03.861Z,25.95
2023-04-27T19:51:15.037Z,28.63
2023-04-27T19:53:22.382Z,23.73
2023-04-27T19:55:29.965Z,24.20
2023-04-27T19:57:37.403Z,29.17
2023-04-27T19:59:45.102Z,25.25
2023-04-27T20:01:52.574Z,24.38
2023-04-27T20:04:00.338Z,29.00
2023-04-27T20:06:07.845Z,23.98
2023-04-27T20:08:17.149Z,24.23
2023-04-27T20:10:24.432Z,28.38
2023-04-27T20:12:51.423Z,23.23
2023-04-27T20:14:59.226Z,26.45
2023-04-27T20:17:06.876Z,23.30
2023-04-27T20:19:13.896Z,28.60
2023-04-27T20:21:22.540Z,24.55
2023-04-27T20:23:31.440Z,25.35
2023-04-27T20:25:39.331Z,25.08
2023-04-27T20:27:46.519Z,26.63
2023-04-27T20:29:54.258Z,26.15
2023-04-27T20:32:01.752Z,23.77
2023-04-27T20:34:09.337Z,22.75
2023-04-27T20:36:18.445Z,26.23
2023-04-27T20:38:25.853Z,27.13
2023-04-27T20:40:34.930Z,25.98
2023-04-27T20:42:43.528Z,27.75
2023-04-27T20:44:51.442Z,31.20
2023-04-27T20:46:58.828Z,30.02
2023-04-27T20:49:06.059Z,27.35
2023-04-27T20:51:13.616Z,28.33
2023-04-27T20:53:20.784Z,26.65
2023-04-27T20:55:28.019Z,25.38
2023-04-27T20:57:36.940Z,26.75
2023-04-27T20:59:44.529Z,28.15
2023-04-27T21:01:51.813Z,30.50
2023-04-27T21:03:59.258Z,26.83
2023-04-27T21:06:06.843Z,24.10
2023-04-27T21:08:14.076Z,27.77
2023-04-27T21:10:21.621Z,26.77
2023-04-27T21:12:28.801Z,25.92
2023-04-27T21:14:38.539Z,25.48
2023-04-27T21:16:45.678Z,26.10
2023-04-27T21:18:53.262Z,27.33
2023-04-27T21:21:00.755Z,26.40
2023-04-27T21:23:08.255Z,27.05
2023-04-27T21:25:15.737Z,27.52
2023-04-27T21:27:23.276Z,27.02
2023-04-27T21:29:30.709Z,27.20
2023-04-27T21:31:40.180Z,32.30
2023-04-27T21:33:47.439Z,27.02
2023-04-27T21:35:54.921Z,33.60
2023-04-27T21:38:02.050Z,30.40
2023-04-27T21:40:10.454Z,32.33
2023-04-27T21:42:17.480Z,31.67
2023-04-27T21:44:24.968Z,35.42
2023-04-27T21:46:32.297Z,26.63
2023-04-27T21:48:41.330Z,27.15
2023-04-27T21:50:48.767Z,26.23
2023-04-27T21:52:56.307Z,27.35
2023-04-27T21:55:03.562Z,23.90
2023-04-27T21:57:11.752Z,30.08
2023-04-27T21:59:18.933Z,29.90
2023-04-27T22:01:27.872Z,30.45
2023-04-27T22:03:35.513Z,33.85
2023-04-27T22:05:44.829Z,34.13
2023-04-27T22:07:52.464Z,32.00
2023-04-27T22:10:00.071Z,33.15
2023-04-27T22:12:07.656Z,27.00
2023-04-27T22:14:15.079Z,30.05
2023-04-27T22:16:23.162Z,28.52
2023-04-27T22:18:30.681Z,31.45
2023-04-27T22:20:38.278Z,31.10
2023-04-27T22:22:47.651Z,33.85
2023-04-27T22:24:55.038Z,31.45
2023-04-27T22:27:03.043Z,32.15
2023-04-27T22:29:10.128Z,37.38
2023-04-27T22:31:17.828Z,36.72
2023-04-27T22:33:25.311Z,37.95
2023-04-27T22:35:33.047Z,36.75
2023-04-27T22:37:40.133Z,33.53
2023-04-27T22:39:49.305Z,32.17
2023-04-27T22:41:56.545Z,31.60
2023-04-27T22:44:04.131Z,35.15
2023-04-27T22:46:11.616Z,34.97
2023-04-27T22:48:19.215Z,33.80
2023-04-27T22:50:26.391Z,31.27
2023-04-27T22:52:34.879Z,34.45
2023-04-27T22:54:42.105Z,32.78
2023-04-27T22:56:51.217Z,34.53
2023-04-27T22:58:58.968Z,32.63
2023-04-27T23:01:06.356Z,34.50
2023-04-27T23:03:14.300Z,32.15
2023-04-27T23:05:21.738Z,35.90
2023-04-27T23:07:29.651Z,31.63
2023-04-27T23:09:37.762Z,31.40
2023-04-27T23:11:45.380Z,32.13
2023-04-27T23:13:55.671Z,30.10
2023-04-27T23:16:03.020Z,29.52
2023-04-27T23:18:10.277Z,31.58
2023-04-27T23:22:31.829Z,30.58
2023-04-27T23:24:39.163Z,29.45
2023-04-27T23:26:46.196Z,33.33
2023-04-27T23:28:55.476Z,37.38
2023-04-27T23:31:02.573Z,33.95
2023-04-27T23:33:09.751Z,34.88
2023-04-27T23:35:16.966Z,34.92
2023-04-27T23:37:25.432Z,35.92
2023-04-27T23:39:32.301Z,32.42
2023-04-27T23:41:39.253Z,34.65
2023-04-27T23:43:46.613Z,34.45
2023-04-27T23:45:55.727Z,33.13
2023-04-27T23:48:02.935Z,33.03
2023-04-27T23:50:11.092Z,40.83
2023-04-27T23:52:18.566Z,36.05
2023-04-27T23:54:26.076Z,33.97
2023-04-27T23:56:33.447Z,37.58
2023-04-27T23:58:40.674Z,35.08
